createdAt,value
2023-10-24T00:00:34.967Z,100776.34
2023-10-24T00:03:04.204Z,100794.38
2023-10-24T00:05:31.988Z,100799.06
2023-10-24T00:07:59.647Z,100790.41
2023-10-24T00:10:27.332Z,100774.78
2023-10-24T00:12:55.207Z,100763.41
2023-10-24T00:15:23.141Z,100759.41
2023-10-24T00:17:50.857Z,100765.47
2023-10-24T00:20:20.119Z,100763.41
2023-10-24T00:22:47.782Z,100769.13
2023-10-24T00:25:16.194Z,100760.22
2023-10-24T00:27:43.977Z,100762.22
2023-10-24T00:30:12.330Z,100757.38
2023-10-24T00:32:40.080Z,100745.06
2023-10-24T00:35:08.278Z,100746.72
2023-10-24T00:37:37.404Z,100748.00
2023-10-24T00:40:06.068Z,100747.06
2023-10-24T00:42:33.726Z,100742.69
2023-10-24T00:45:01.380Z,100733.75
2023-10-24T00:47:29.393Z,100747.44
2023-10-24T00:49:57.288Z,100737.34
2023-10-24T00:52:25.250Z,100724.22
2023-10-24T00:54:54.763Z,100720.25
2023-10-24T00:57:22.901Z,100723.38
2023-10-24T00:59:51.607Z,100715.47
2023-10-24T01:02:20.692Z,100717.88
2023-10-24T01:04:50.139Z,100714.78
2023-10-24T01:07:17.844Z,100714.00
2023-10-24T01:09:45.770Z,100708.13
2023-10-24T01:12:15.039Z,100706.03
2023-10-24T01:14:43.014Z,100693.84
2023-10-24T01:17:14.837Z,100700.19
2023-10-24T01:19:42.623Z,100688.63
2023-10-24T01:22:11.718Z,100695.72
2023-10-24T01:24:40.127Z,100689.53
2023-10-24T01:27:07.980Z,100690.84
2023-10-24T01:29:36.625Z,100692.56
2023-10-24T01:32:04.693Z,100692.56
2023-10-24T01:34:32.496Z,100695.03
2023-10-24T01:37:00.209Z,100674.59
2023-10-24T01:39:29.192Z,100678.72
2023-10-24T01:41:56.844Z,100682.69
2023-10-24T01:44:24.583Z,100644.19
2023-10-24T01:46:52.265Z,100676.50
2023-10-24T01:49:22.247Z,100660.50
2023-10-24T01:51:50.482Z,100650.06
2023-10-24T01:54:18.141Z,100648.94
2023-10-24T01:56:47.405Z,100633.34
2023-10-24T01:59:15.054Z,100633.44
2023-10-24T02:01:43.463Z,100628.94
2023-10-24T02:04:14.884Z,100622.28
2023-10-24T02:06:42.945Z,100638.41
2023-10-24T02:09:10.657Z,100624.78
2023-10-24T02:11:38.313Z,100606.44
2023-10-24T02:14:07.382Z,100591.81
2023-10-24T02:16:35.075Z,100582.00
2023-10-24T02:19:03.085Z,100578.16
2023-10-24T02:21:30.765Z,100573.91
2023-10-24T02:23:58.853Z,100575.19
2023-10-24T02:26:26.934Z,100552.63
2023-10-24T02:28:54.661Z,100560.13
2023-10-24T02:31:23.784Z,100559.84
2023-10-24T02:33:51.790Z,100568.16
2023-10-24T02:36:19.488Z,100556.44
2023-10-24T02:38:47.163Z,100549.88
2023-10-24T02:41:15.006Z,100571.31
2023-10-24T02:43:42.767Z,100571.88
2023-10-24T02:46:10.530Z,100567.25
2023-10-24T02:48:39.730Z,100556.88
2023-10-24T02:51:07.503Z,100485.31
2023-10-24T02:53:35.162Z,100544.53
2023-10-24T02:56:03.836Z,100544.22
2023-10-24T02:58:31.668Z,100537.59
2023-10-24T03:01:05.948Z,100522.63
2023-10-24T03:03:34.729Z,100521.88
2023-10-24T03:06:03.919Z,100511.63
2023-10-24T03:08:31.598Z,100496.88
2023-10-24T03:10:59.339Z,100497.56
2023-10-24T03:13:27.039Z,100494.84
2023-10-24T03:15:54.695Z,100492.50
2023-10-24T03:18:22.376Z,100494.16
2023-10-24T03:20:50.039Z,100491.31
2023-10-24T03:23:19.187Z,100486.00
2023-10-24T03:25:46.852Z,100492.28
2023-10-24T03:28:15.229Z,100490.16
2023-10-24T03:30:42.966Z,100489.66
2023-10-24T03:33:10.811Z,100475.34
2023-10-24T03:35:38.863Z,100481.16
2023-10-24T03:38:06.493Z,100491.78
2023-10-24T03:40:35.551Z,100488.59
2023-10-24T03:43:03.222Z,100484.59
2023-10-24T03:45:30.990Z,100471.97
2023-10-24T03:47:58.821Z,100467.44
2023-10-24T03:50:26.619Z,100471.31
2023-10-24T03:52:54.356Z,100470.47
2023-10-24T03:55:22.332Z,100456.84
2023-10-24T03:57:51.339Z,100464.84
2023-10-24T04:00:19.588Z,100461.16
2023-10-24T04:02:48.144Z,100465.31
2023-10-24T04:05:16.035Z,100454.94
2023-10-24T04:07:43.743Z,100435.34
2023-10-24T04:10:12.872Z,100444.09
2023-10-24T04:12:40.616Z,100444.78
2023-10-24T04:15:11.437Z,100429.41
2023-10-24T04:17:39.305Z,100441.28
2023-10-24T04:20:09.123Z,100434.53
2023-10-24T04:22:37.083Z,100431.44
2023-10-24T04:25:05.657Z,100434.63
2023-10-24T04:27:33.340Z,100427.53
2023-10-24T04:30:01.664Z,100415.97
2023-10-24T04:32:31.867Z,100426.91
2023-10-24T04:35:00.391Z,100423.28
2023-10-24T04:37:28.178Z,100416.34
2023-10-24T04:39:56.044Z,100417.31
2023-10-24T04:42:24.713Z,100405.34
2023-10-24T04:44:52.436Z,100416.34
2023-10-24T04:47:20.117Z,100405.03
2023-10-24T04:49:49.211Z,100416.72
2023-10-24T04:52:17.029Z,100405.03
2023-10-24T04:54:45.488Z,100396.78
2023-10-24T04:57:13.254Z,100384.38
2023-10-24T04:59:40.914Z,100379.44
2023-10-24T05:02:08.639Z,100375.47
2023-10-24T05:04:36.331Z,100382.44
2023-10-24T05:07:06.926Z,100379.59
2023-10-24T05:09:36.271Z,100358.22
2023-10-24T05:12:04.298Z,100367.81
2023-10-24T05:14:32.069Z,100359.06
2023-10-24T05:16:59.976Z,100365.75
2023-10-24T05:19:27.908Z,100379.28
2023-10-24T05:21:55.805Z,100374.31
2023-10-24T05:24:24.822Z,100358.81
2023-10-24T05:26:52.467Z,100358.53
2023-10-24T05:29:20.155Z,100351.88
2023-10-24T05:31:47.976Z,100372.38
2023-10-24T05:34:15.765Z,100367.34
2023-10-24T05:36:43.638Z,100363.13
2023-10-24T05:39:11.472Z,100368.00
2023-10-24T05:41:40.478Z,100366.44
2023-10-24T05:44:09.361Z,100367.19
2023-10-24T05:46:37.062Z,100372.81
2023-10-24T05:49:04.886Z,100346.53
2023-10-24T05:51:32.613Z,100345.91
2023-10-24T05:54:01.081Z,100358.00
2023-10-24T05:56:28.805Z,100364.22
2023-10-24T05:58:57.880Z,100344.09
2023-10-24T06:01:25.813Z,100359.97
2023-10-24T06:03:53.605Z,100374.56
2023-10-24T06:06:21.250Z,100363.56
2023-10-24T06:08:48.930Z,100359.72
2023-10-24T06:11:17.157Z,100366.88
2023-10-24T06:13:44.829Z,100348.31
2023-10-24T06:16:18.230Z,100357.09
2023-10-24T06:18:46.104Z,100348.88
2023-10-24T06:21:14.479Z,100364.84
2023-10-24T06:23:42.119Z,100338.00
2023-10-24T06:26:14.320Z,100341.38
2023-10-24T06:28:42.057Z,100326.75
2023-10-24T06:31:09.814Z,100332.34
2023-10-24T06:33:40.000Z,100310.88
2023-10-24T06:36:08.740Z,100344.28
2023-10-24T06:38:36.408Z,100328.66
2023-10-24T06:41:04.098Z,100331.41
2023-10-24T06:43:31.790Z,100324.22
2023-10-24T06:45:59.495Z,100324.56
2023-10-24T06:48:27.149Z,100333.09
2023-10-24T06:50:56.136Z,100327.47
2023-10-24T06:53:23.833Z,100336.03
2023-10-24T06:55:51.542Z,100315.63
2023-10-24T06:58:19.260Z,100327.91
2023-10-24T07:00:47.245Z,100309.38
2023-10-24T07:03:15.073Z,100303.94
2023-10-24T07:05:42.815Z,100314.66
2023-10-24T07:08:11.889Z,100313.66
2023-10-24T07:10:39.661Z,100306.25
2023-10-24T07:13:07.307Z,100332.72
2023-10-24T07:15:34.960Z,100326.16
2023-10-24T07:18:02.614Z,100318.69
2023-10-24T07:20:30.275Z,100330.63
2023-10-24T07:22:57.965Z,100333.06
2023-10-24T07:25:27.543Z,100309.03
2023-10-24T07:27:55.337Z,100296.31
2023-10-24T07:30:24.017Z,100312.16
2023-10-24T07:32:51.747Z,100326.81
2023-10-24T07:35:19.493Z,100339.75
2023-10-24T07:37:47.184Z,100352.38
2023-10-24T07:40:15.174Z,100334.28
2023-10-24T07:42:44.200Z,100340.66
2023-10-24T07:45:13.322Z,100329.19
2023-10-24T07:47:41.147Z,100342.81
2023-10-24T07:50:10.562Z,100320.97
2023-10-24T07:52:38.292Z,100319.19
2023-10-24T07:55:06.900Z,100305.38
2023-10-24T07:57:35.076Z,100318.22
2023-10-24T08:00:04.611Z,100318.22
2023-10-24T08:02:32.288Z,100307.31
2023-10-24T08:05:00.016Z,100306.00
2023-10-24T08:07:27.812Z,100327.13
2023-10-24T08:09:55.621Z,100302.00
2023-10-24T08:12:23.490Z,100309.63
2023-10-24T08:14:51.509Z,100301.16
2023-10-24T08:17:20.756Z,100308.97
2023-10-24T08:19:48.556Z,100307.38
2023-10-24T08:22:16.215Z,100314.09
2023-10-24T08:24:44.721Z,100309.47
2023-10-24T08:27:13.642Z,100298.81
2023-10-24T08:29:41.557Z,100295.97
2023-10-24T08:32:14.791Z,100298.91
2023-10-24T08:34:45.081Z,100282.31
2023-10-24T08:37:13.135Z,100278.28
2023-10-24T08:39:41.333Z,100286.41
2023-10-24T08:42:11.922Z,100292.13
2023-10-24T08:44:40.787Z,100292.56
2023-10-24T08:47:09.457Z,100284.59
2023-10-24T08:49:38.570Z,100284.75
2023-10-24T08:52:22.501Z,100274.56
2023-10-24T08:54:54.772Z,100277.63
2023-10-24T08:57:26.984Z,100279.81
2023-10-24T08:59:57.270Z,100280.09
2023-10-24T09:02:25.181Z,100273.16
2023-10-24T09:04:53.508Z,100272.41
2023-10-24T09:07:22.566Z,100280.56
2023-10-24T09:09:50.250Z,100266.06
2023-10-24T09:12:18.002Z,100252.22
2023-10-24T09:14:54.425Z,100256.41
2023-10-24T09:17:24.780Z,100272.69
2023-10-24T09:19:53.241Z,100260.28
2023-10-24T09:22:22.335Z,100266.44
2023-10-24T09:24:51.143Z,100266.72
2023-10-24T09:27:24.783Z,100265.94
2023-10-24T09:29:53.286Z,100279.03
2023-10-24T09:32:22.085Z,100296.25
2023-10-24T09:34:50.263Z,100276.34
2023-10-24T09:37:18.323Z,100271.88
2023-10-24T09:39:55.244Z,100220.91
2023-10-24T09:42:29.195Z,100285.06
2023-10-24T09:45:01.475Z,100274.06
2023-10-24T09:47:29.779Z,100273.50
2023-10-24T09:49:59.539Z,100270.47
2023-10-24T09:52:30.014Z,100282.34
2023-10-24T09:55:00.741Z,100291.06
2023-10-24T09:57:29.561Z,100276.09
2023-10-24T10:00:00.920Z,100260.34
2023-10-24T10:02:29.928Z,100273.06
2023-10-24T10:04:57.950Z,100289.97
2023-10-24T10:07:27.629Z,100275.75
2023-10-24T10:09:56.217Z,100280.28
2023-10-24T10:12:26.898Z,100288.97
2023-10-24T10:15:14.949Z,100284.19
2023-10-24T10:17:53.882Z,100272.38
2023-10-24T10:20:39.907Z,100274.09
2023-10-24T10:23:21.238Z,100262.22
2023-10-24T10:26:00.003Z,100251.91
2023-10-24T10:28:51.010Z,100263.41
2023-10-24T10:32:35.577Z,100263.34
2023-10-24T10:34:20.408Z,100251.88
2023-10-24T10:36:55.299Z,100245.84
2023-10-24T10:39:22.980Z,100246.28
2023-10-24T10:41:50.668Z,100243.56
2023-10-24T10:44:43.609Z,100248.28
2023-10-24T10:47:15.985Z,100258.06
2023-10-24T10:49:45.954Z,100252.16
2023-10-24T10:52:40.789Z,100247.41
2023-10-24T10:55:25.475Z,100237.94
2023-10-24T10:58:04.319Z,100234.41
2023-10-24T11:00:45.030Z,100225.69
2023-10-24T11:03:33.464Z,100221.16
2023-10-24T11:06:09.440Z,100212.47
2023-10-24T11:08:38.905Z,100211.13
2023-10-24T11:11:10.518Z,100218.31
2023-10-24T11:13:41.665Z,100224.13
2023-10-24T11:16:25.393Z,100211.81
2023-10-24T11:18:58.371Z,100212.47
2023-10-24T11:21:26.022Z,100202.59
2023-10-24T11:23:54.934Z,100192.69
2023-10-24T11:26:22.705Z,100188.53
2023-10-24T11:28:52.792Z,100180.78
2023-10-24T11:31:23.678Z,100182.31
2023-10-24T11:33:51.911Z,100180.78
2023-10-24T11:36:19.727Z,100186.84
2023-10-24T11:38:48.885Z,100189.03
2023-10-24T11:41:16.766Z,100193.53
2023-10-24T11:43:46.283Z,100188.28
2023-10-24T11:46:14.150Z,100201.25
2023-10-24T11:48:43.225Z,100197.66
2023-10-24T11:51:10.932Z,100198.19
2023-10-24T11:53:38.632Z,100190.38
2023-10-24T11:56:09.726Z,100199.34
2023-10-24T11:58:37.622Z,100215.19
2023-10-24T12:01:05.436Z,100210.16
2023-10-24T12:03:47.213Z,100206.47
2023-10-24T12:06:18.131Z,100196.91
2023-10-24T12:08:46.079Z,100205.84
2023-10-24T12:11:14.837Z,100183.75
2023-10-24T12:13:42.692Z,100198.66
2023-10-24T12:16:10.754Z,100194.03
2023-10-24T12:18:39.619Z,100188.03
2023-10-24T12:21:11.415Z,100172.50
2023-10-24T12:23:40.379Z,100173.53
2023-10-24T12:26:08.258Z,100161.09
2023-10-24T12:28:37.560Z,100167.78
2023-10-24T12:31:06.318Z,100161.84
2023-10-24T12:33:34.309Z,100157.91
2023-10-24T12:36:02.271Z,100157.66
2023-10-24T12:38:32.317Z,100161.53
2023-10-24T12:41:00.109Z,100159.59
2023-10-24T12:43:27.787Z,100159.66
2023-10-24T12:45:55.782Z,100161.66
2023-10-24T12:48:23.686Z,100156.69
2023-10-24T12:50:51.380Z,100149.00
2023-10-24T12:53:19.031Z,100154.91
2023-10-24T12:55:48.319Z,100138.81
2023-10-24T12:58:16.020Z,100142.13
2023-10-24T13:00:46.323Z,100141.53
2023-10-24T13:03:17.945Z,100135.03
2023-10-24T13:05:46.775Z,100138.78
2023-10-24T13:08:14.534Z,100138.78
2023-10-24T13:10:42.325Z,100140.97
2023-10-24T13:13:11.485Z,100144.84
2023-10-24T13:15:39.147Z,100141.13
2023-10-24T13:18:07.084Z,100140.50
2023-10-24T13:20:34.812Z,100149.44
2023-10-24T13:23:02.513Z,100064.78
2023-10-24T13:25:31.014Z,100148.38
2023-10-24T13:27:58.790Z,100146.88
2023-10-24T13:30:40.049Z,100124.00
2023-10-24T13:33:09.134Z,100121.41
2023-10-24T13:38:07.862Z,100111.31
2023-10-24T13:40:35.609Z,100125.63
2023-10-24T13:43:03.770Z,100128.50
2023-10-24T13:45:32.916Z,100129.31
2023-10-24T13:48:00.956Z,100117.38
2023-10-24T13:50:28.815Z,100113.97
2023-10-24T13:52:56.590Z,100121.75
2023-10-24T13:55:24.315Z,100114.03
2023-10-24T13:57:52.417Z,100115.59
2023-10-24T14:00:20.294Z,100126.66
2023-10-24T14:02:49.395Z,100124.06
2023-10-24T14:05:17.249Z,100098.84
2023-10-24T14:07:45.637Z,100109.19
2023-10-24T14:10:13.560Z,100108.88
2023-10-24T14:12:41.300Z,100105.75
2023-10-24T14:15:09.445Z,100120.78
2023-10-24T14:17:37.182Z,100121.47
2023-10-24T14:20:07.835Z,100125.03
2023-10-24T14:22:36.491Z,100117.00
2023-10-24T14:25:04.702Z,100121.84
2023-10-24T14:27:32.379Z,100134.91
2023-10-24T14:30:00.303Z,100129.00
2023-10-24T14:32:28.053Z,100115.19
2023-10-24T14:34:56.002Z,100130.78
2023-10-24T14:37:26.052Z,100094.31
2023-10-24T14:39:53.772Z,100128.84
2023-10-24T14:42:21.486Z,100135.91
2023-10-24T14:44:51.064Z,100144.94
2023-10-24T14:47:18.807Z,100146.88
2023-10-24T14:49:46.613Z,100139.56
2023-10-24T14:52:14.335Z,100133.66
2023-10-24T14:54:43.456Z,100142.63
2023-10-24T14:57:11.600Z,100145.88
2023-10-24T14:59:39.385Z,100148.41
2023-10-24T15:02:07.858Z,100153.38
2023-10-24T15:04:35.714Z,100152.00
2023-10-24T15:07:03.399Z,100146.19
2023-10-24T15:09:31.185Z,100149.06
2023-10-24T15:12:01.032Z,100149.25
2023-10-24T15:14:28.750Z,100141.81
2023-10-24T15:16:56.548Z,100137.91
2023-10-24T15:19:24.276Z,100142.88
2023-10-24T15:21:51.958Z,100146.75
2023-10-24T15:24:20.988Z,100134.06
2023-10-24T15:26:50.485Z,100130.28
2023-10-24T15:29:19.662Z,100146.13
2023-10-24T15:31:47.558Z,100133.88
2023-10-24T15:34:15.285Z,100145.81
2023-10-24T15:36:43.069Z,100135.84
2023-10-24T15:39:10.792Z,100125.56
2023-10-24T15:41:38.502Z,100120.94
2023-10-24T15:44:06.563Z,100128.28
2023-10-24T15:46:35.703Z,100130.78
2023-10-24T15:49:04.379Z,100129.84
2023-10-24T15:51:32.078Z,100128.31
2023-10-24T15:53:59.744Z,100126.03
2023-10-24T15:56:27.489Z,100125.72
2023-10-24T15:58:55.278Z,100116.53
2023-10-24T16:01:26.823Z,100123.44
2023-10-24T16:03:56.183Z,100114.16
2023-10-24T16:06:24.135Z,100088.03
2023-10-24T16:08:51.948Z,100108.50
2023-10-24T16:11:21.037Z,100103.44
2023-10-24T16:13:50.223Z,100103.78
2023-10-24T16:16:17.917Z,100113.31
2023-10-24T16:18:45.664Z,100118.78
2023-10-24T16:21:14.674Z,100105.66
2023-10-24T16:23:42.414Z,100103.97
2023-10-24T16:26:10.992Z,100115.59
2023-10-24T16:28:40.420Z,100103.66
2023-10-24T16:31:08.858Z,100099.38
2023-10-24T16:33:36.572Z,100095.44
2023-10-24T16:36:05.124Z,100094.78
2023-10-24T16:38:34.323Z,100097.41
2023-10-24T16:41:02.484Z,100093.50
2023-10-24T16:43:31.546Z,100103.38
2023-10-24T16:45:59.600Z,100119.63
2023-10-24T16:48:29.278Z,100110.69
2023-10-24T16:50:58.139Z,100080.19
2023-10-24T16:53:26.515Z,100110.38
2023-10-24T16:55:57.144Z,100102.41
2023-10-24T16:58:26.147Z,100086.53
2023-10-24T17:00:56.197Z,100097.66
2023-10-24T17:03:24.292Z,100103.53
2023-10-24T17:05:52.123Z,100091.50
2023-10-24T17:08:19.849Z,100102.38
2023-10-24T17:10:57.920Z,100089.09
2023-10-24T17:13:26.120Z,100084.31
2023-10-24T17:15:53.888Z,100070.88
2023-10-24T17:18:21.838Z,100084.50
2023-10-24T17:20:49.507Z,100069.50
2023-10-24T17:23:17.289Z,100071.63
2023-10-24T17:25:45.020Z,100075.75
2023-10-24T17:28:20.529Z,100065.25
2023-10-24T17:30:48.772Z,100062.56
2023-10-24T17:33:16.598Z,100064.06
2023-10-24T17:35:44.710Z,100071.13
2023-10-24T17:38:12.492Z,100064.06
2023-10-24T17:40:43.629Z,100069.25
2023-10-24T17:43:11.377Z,100068.53
2023-10-24T17:45:45.373Z,100048.63
2023-10-24T17:48:13.348Z,100060.81
2023-10-24T17:50:41.874Z,100061.59
2023-10-24T17:53:10.061Z,100039.97
2023-10-24T17:55:38.536Z,100040.59
2023-10-24T17:58:06.728Z,100050.88
2023-10-24T18:00:35.426Z,100054.97
2023-10-24T18:03:04.998Z,100052.16
2023-10-24T18:05:32.749Z,100058.97
2023-10-24T18:08:01.910Z,100054.38
2023-10-24T18:10:29.706Z,100061.81
2023-10-24T18:12:57.838Z,100044.34
2023-10-24T18:15:25.508Z,100060.72
2023-10-24T18:17:53.241Z,100063.91
2023-10-24T18:20:22.537Z,100055.03
2023-10-24T18:22:50.305Z,100051.44
2023-10-24T18:25:18.224Z,100051.22
2023-10-24T18:27:46.579Z,100053.25
2023-10-24T18:30:15.226Z,100058.53
2023-10-24T18:32:42.977Z,100045.69
2023-10-24T18:35:11.754Z,100038.88
2023-10-24T18:37:41.094Z,100035.72
2023-10-24T18:40:10.207Z,100036.97
2023-10-24T18:42:37.925Z,100043.69
2023-10-24T18:45:06.768Z,100041.56
2023-10-24T18:47:34.461Z,100045.44
2023-10-24T18:50:02.241Z,100051.69
2023-10-24T18:52:30.049Z,100050.28
2023-10-24T18:54:59.171Z,100038.34
2023-10-24T18:57:27.030Z,100045.16
2023-10-24T19:02:25.659Z,100044.59
2023-10-24T19:04:53.344Z,100038.59
2023-10-24T19:07:21.072Z,100042.41
2023-10-24T19:09:49.287Z,100045.59
2023-10-24T19:12:19.175Z,100036.19
2023-10-24T19:14:47.529Z,100047.06
2023-10-24T19:17:15.976Z,100043.69
2023-10-24T19:19:44.667Z,100048.59
2023-10-24T19:22:13.127Z,100043.22
2023-10-24T19:24:41.330Z,100046.50
2023-10-24T19:27:10.578Z,100049.91
2023-10-24T19:29:40.135Z,100040.59
2023-10-24T19:32:09.107Z,100041.44
2023-10-24T19:34:38.903Z,100030.22
2023-10-24T19:37:10.018Z,100032.16
2023-10-24T19:39:38.260Z,100039.00
2023-10-24T19:42:08.146Z,100038.88
2023-10-24T19:44:36.584Z,100037.94
2023-10-24T19:47:06.678Z,100041.59
2023-10-24T19:49:38.012Z,100043.56
2023-10-24T19:52:06.566Z,100052.97
2023-10-24T19:54:35.037Z,100051.91
2023-10-24T19:57:03.060Z,100038.19
2023-10-24T19:59:31.815Z,100050.56
2023-10-24T20:02:00.162Z,100054.97
2023-10-24T20:04:30.401Z,100049.75
2023-10-24T20:07:00.775Z,100047.16
2023-10-24T20:11:01.978Z,100048.88
2023-10-24T20:12:35.959Z,100070.19
2023-10-24T20:15:07.947Z,100059.03
2023-10-24T20:17:37.711Z,100068.59
2023-10-24T20:20:07.901Z,100057.16
2023-10-24T20:22:37.128Z,100079.56
2023-10-24T20:25:06.295Z,100047.41
2023-10-24T20:27:35.428Z,100072.75
2023-10-24T20:30:05.633Z,100072.94
2023-10-24T20:32:33.929Z,100081.88
2023-10-24T20:35:02.279Z,100071.97
2023-10-24T20:37:31.418Z,100081.34
2023-10-24T20:39:59.608Z,100081.75
2023-10-24T20:42:28.691Z,100071.41
2023-10-24T20:44:56.861Z,100055.88
2023-10-24T20:47:24.874Z,100064.16
2023-10-24T20:49:52.629Z,100068.91
2023-10-24T20:52:20.418Z,100065.16
2023-10-24T20:54:51.293Z,100079.06
2023-10-24T20:57:18.948Z,100075.56
2023-10-24T20:59:46.676Z,100084.56
2023-10-24T21:02:14.367Z,100072.94
2023-10-24T21:04:42.992Z,100083.16
2023-10-24T21:07:11.715Z,100080.09
2023-10-24T21:09:39.545Z,100068.94
2023-10-24T21:12:09.826Z,100078.03
2023-10-24T21:14:37.590Z,100087.34
2023-10-24T21:17:04.635Z,100087.59
2023-10-24T21:19:32.432Z,100097.53
2023-10-24T21:22:00.198Z,100090.34
2023-10-24T21:24:28.737Z,100101.59
2023-10-24T21:26:56.805Z,100097.00
2023-10-24T21:29:28.272Z,100105.81
2023-10-24T21:31:57.106Z,100105.84
2023-10-24T21:34:24.847Z,100092.28
2023-10-24T21:36:52.602Z,100091.00
2023-10-24T21:39:20.769Z,100093.41
2023-10-24T21:41:48.417Z,100092.94
2023-10-24T21:44:16.072Z,100079.44
2023-10-24T21:46:45.204Z,100089.03
2023-10-24T21:49:13.234Z,100077.53
2023-10-24T21:51:41.003Z,100084.94
2023-10-24T21:54:09.035Z,100087.03
2023-10-24T21:56:36.724Z,100081.56
2023-10-24T21:59:04.402Z,100075.91
2023-10-24T22:01:32.235Z,100083.88
2023-10-24T22:04:01.367Z,100077.34
2023-10-24T22:06:29.241Z,100086.81
2023-10-24T22:08:56.934Z,100084.53
2023-10-24T22:11:24.679Z,100076.59
2023-10-24T22:13:52.405Z,100071.28
2023-10-24T22:16:20.237Z,100074.81
2023-10-24T22:18:48.020Z,100069.72
2023-10-24T22:21:17.548Z,100076.47
2023-10-24T22:23:45.547Z,100079.25
2023-10-24T22:26:14.021Z,100065.41
2023-10-24T22:28:41.738Z,100067.09
2023-10-24T22:31:09.481Z,100062.94
2023-10-24T22:33:37.254Z,100067.88
2023-10-24T22:36:05.950Z,100055.97
2023-10-24T22:38:34.941Z,100054.53
2023-10-24T22:41:02.621Z,100063.19
2023-10-24T22:43:32.495Z,100060.06
2023-10-24T22:46:00.271Z,100060.09
2023-10-24T22:48:28.033Z,100058.81
2023-10-24T22:50:55.709Z,100055.53
2023-10-24T22:53:24.071Z,100052.31
2023-10-24T22:55:53.109Z,100062.69
2023-10-24T22:58:20.844Z,100053.88
2023-10-24T23:00:48.587Z,100054.59
2023-10-24T23:03:16.480Z,100058.81
2023-10-24T23:05:44.882Z,100063.00
2023-10-24T23:08:12.603Z,100046.69
2023-10-24T23:10:40.462Z,100058.44
2023-10-24T23:13:09.635Z,100060.91
2023-10-24T23:15:40.409Z,100056.53
2023-10-24T23:18:08.228Z,100041.19
2023-10-24T23:20:35.883Z,100052.91
2023-10-24T23:23:03.554Z,100055.97
2023-10-24T23:25:31.256Z,100057.38
2023-10-24T23:27:59.219Z,100055.44
2023-10-24T23:30:30.586Z,100052.53
2023-10-24T23:32:58.380Z,100055.75
2023-10-24T23:35:26.290Z,100048.94
2023-10-24T23:37:53.969Z,100048.47
2023-10-24T23:40:21.817Z,99987.22
2023-10-24T23:42:49.554Z,100050.69
2023-10-24T23:45:17.424Z,100055.56
2023-10-24T23:47:46.539Z,100043.50
2023-10-24T23:50:14.237Z,100048.63
2023-10-24T23:52:41.955Z,100052.88
2023-10-24T23:55:10.347Z,100048.16
2023-10-24T23:57:38.056Z,100042.56
